Terminal Aerodrome Forecast
Issued by NWS Melbourne, FL

Home | Current Version | Previous Version | Text Only | Print | Product List | Glossary On
Versions: 1 2 3 4 5 6 7 8 9 10 11 12 13 14
713
FTUS42 KMLB 201720
TAFVRB
TAF
KVRB 201720Z 2018/2118 03008KT P6SM SCT040 BKN120
     FM210000 05004KT P6SM BKN100
     FM211500 08007KT P6SM SCT030=

USA.gov is the U.S. government's official web portal to all federal, state and local government web resources and services.